sensor_id;sensor_type;location;lat;lon;timestamp;pressure;altitude;pressure_sealevel;temperature;humidity
43125;BME280;49182;50.788;7.318;2024-01-30T00:01:46;102136.56;;;2.49;100.00
43125;BME280;49182;50.788;7.318;2024-01-30T00:06:50;102139.19;;;2.48;100.00
43125;BME280;49182;50.788;7.318;2024-01-30T00:11:52;102140.16;;;2.45;100.00
43125;BME280;49182;50.788;7.318;2024-01-30T00:16:54;102136.88;;;2.38;100.00
43125;BME280;49182;50.788;7.318;2024-01-30T00:21:57;102137.00;;;2.34;100.00
43125;BME280;49182;50.788;7.318;2024-01-30T00:26:59;102138.69;;;2.35;100.00
43125;BME280;49182;50.788;7.318;2024-01-30T00:32:00;102131.06;;;2.29;100.00
43125;BME280;49182;50.788;7.318;2024-01-30T00:37:03;102126.81;;;2.26;100.00
43125;BME280;49182;50.788;7.318;2024-01-30T00:42:05;102096.50;;;1.93;100.00
43125;BME280;49182;50.788;7.318;2024-01-30T00:47:07;102111.53;;;2.14;100.00
43125;BME280;49182;50.788;7.318;2024-01-30T00:52:10;102118.63;;;2.09;100.00
43125;BME280;49182;50.788;7.318;2024-01-30T00:57:12;102127.94;;;2.16;100.00
43125;BME280;49182;50.788;7.318;2024-01-30T01:02:13;102118.63;;;2.09;100.00
43125;BME280;49182;50.788;7.318;2024-01-30T01:07:16;102127.47;;;2.03;100.00
43125;BME280;49182;50.788;7.318;2024-01-30T01:12:18;102119.66;;;2.03;100.00
43125;BME280;49182;50.788;7.318;2024-01-30T01:17:20;102119.91;;;1.94;100.00
43125;BME280;49182;50.788;7.318;2024-01-30T01:22:23;102119.84;;;1.96;100.00
43125;BME280;49182;50.788;7.318;2024-01-30T01:27:25;102122.53;;;1.93;100.00
43125;BME280;49182;50.788;7.318;2024-01-30T01:32:26;102119.19;;;1.89;100.00
43125;BME280;49182;50.788;7.318;2024-01-30T01:37:30;102014.22;;;1.24;100.00
43125;BME280;49182;50.788;7.318;2024-01-30T01:42:31;102125.34;;;1.85;100.00
43125;BME280;49182;50.788;7.318;2024-01-30T01:47:33;102095.44;;;1.68;100.00
43125;BME280;49182;50.788;7.318;2024-01-30T01:52:37;102123.72;;;1.81;100.00
43125;BME280;49182;50.788;7.318;2024-01-30T01:57:40;102115.91;;;1.81;100.00
43125;BME280;49182;50.788;7.318;2024-01-30T02:02:43;102113.31;;;1.81;100.00
43125;BME280;49182;50.788;7.318;2024-01-30T02:07:48;102114.13;;;1.83;100.00
43125;BME280;49182;50.788;7.318;2024-01-30T02:12:50;102108.78;;;1.88;100.00
43125;BME280;49182;50.788;7.318;2024-01-30T02:17:51;102106.28;;;1.85;100.00
43125;BME280;49182;50.788;7.318;2024-01-30T02:22:55;102102.69;;;1.89;100.00
43125;BME280;49182;50.788;7.318;2024-01-30T02:28:00;102105.38;;;1.86;100.00
43125;BME280;49182;50.788;7.318;2024-01-30T02:33:01;102099.13;;;1.91;100.00
43125;BME280;49182;50.788;7.318;2024-01-30T02:38:05;102056.50;;;1.65;100.00
43125;BME280;49182;50.788;7.318;2024-01-30T02:43:06;102095.56;;;1.95;100.00
43125;BME280;49182;50.788;7.318;2024-01-30T02:48:08;102078.28;;;1.91;100.00
43125;BME280;49182;50.788;7.318;2024-01-30T02:53:11;102090.25;;;1.98;100.00
43125;BME280;49182;50.788;7.318;2024-01-30T02:58:13;102085.88;;;2.00;100.00
43125;BME280;49182;50.788;7.318;2024-01-30T03:03:15;102085.91;;;1.99;100.00
43125;BME280;49182;50.788;7.318;2024-01-30T03:08:18;102084.19;;;1.98;100.00
43125;BME280;49182;50.788;7.318;2024-01-30T03:13:21;102080.66;;;2.00;100.00
43125;BME280;49182;50.788;7.318;2024-01-30T03:18:23;102080.59;;;2.03;100.00
43125;BME280;49182;50.788;7.318;2024-01-30T03:23:26;102075.38;;;2.03;100.00
43125;BME280;49182;50.788;7.318;2024-01-30T03:28:27;102078.00;;;2.02;100.00
43125;BME280;49182;50.788;7.318;2024-01-30T03:33:29;102067.78;;;1.96;100.00
43125;BME280;49182;50.788;7.318;2024-01-30T03:38:32;102066.09;;;1.93;100.00
43125;BME280;49182;50.788;7.318;2024-01-30T03:43:34;102067.94;;;1.90;100.00
43125;BME280;49182;50.788;7.318;2024-01-30T03:48:35;102067.88;;;1.91;100.00
43125;BME280;49182;50.788;7.318;2024-01-30T03:53:38;102073.16;;;1.90;100.00
43125;BME280;49182;50.788;7.318;2024-01-30T03:58:40;102068.88;;;1.87;100.00
43125;BME280;49182;50.788;7.318;2024-01-30T04:03:42;102072.44;;;1.85;100.00
43125;BME280;49182;50.788;7.318;2024-01-30T04:08:45;102065.59;;;1.81;100.00
43125;BME280;49182;50.788;7.318;2024-01-30T04:13:47;102064.72;;;1.80;100.00
43125;BME280;49182;50.788;7.318;2024-01-30T04:18:49;102063.94;;;1.78;100.00
43125;BME280;49182;50.788;7.318;2024-01-30T04:23:53;102063.03;;;1.79;100.00
43125;BME280;49182;50.788;7.318;2024-01-30T04:28:54;102064.13;;;1.72;100.00
43125;BME280;49182;50.788;7.318;2024-01-30T04:33:56;102038.47;;;1.58;100.00
43125;BME280;49182;50.788;7.318;2024-01-30T04:38:59;102047.84;;;1.64;100.00
43125;BME280;49182;50.788;7.318;2024-01-30T04:44:01;102052.13;;;1.67;100.00
43125;BME280;49182;50.788;7.318;2024-01-30T04:49:02;102043.63;;;1.60;100.00
43125;BME280;49182;50.788;7.318;2024-01-30T04:54:06;102051.59;;;1.54;100.00
43125;BME280;49182;50.788;7.318;2024-01-30T04:59:07;102045.47;;;1.55;100.00
43125;BME280;49182;50.788;7.318;2024-01-30T05:04:09;101941.53;;;0.87;100.00
43125;BME280;49182;50.788;7.318;2024-01-30T05:09:18;102033.03;;;1.35;100.00
43125;BME280;49182;50.788;7.318;2024-01-30T05:14:20;102042.41;;;1.41;100.00
43125;BME280;49182;50.788;7.318;2024-01-30T05:19:22;102044.22;;;1.37;100.00
43125;BME280;49182;50.788;7.318;2024-01-30T05:24:25;102043.63;;;1.28;100.00
43125;BME280;49182;50.788;7.318;2024-01-30T05:29:28;102041.91;;;1.27;100.00
43125;BME280;49182;50.788;7.318;2024-01-30T05:34:30;102048.97;;;1.23;100.00
43125;BME280;49182;50.788;7.318;2024-01-30T05:39:33;102052.44;;;1.22;100.00
43125;BME280;49182;50.788;7.318;2024-01-30T05:44:35;102049.00;;;1.21;100.00
43125;BME280;49182;50.788;7.318;2024-01-30T05:49:36;102050.91;;;1.13;100.00
43125;BME280;49182;50.788;7.318;2024-01-30T05:54:40;102055.28;;;1.13;100.00
43125;BME280;49182;50.788;7.318;2024-01-30T05:59:42;102050.88;;;1.16;100.00
43125;BME280;49182;50.788;7.318;2024-01-30T06:04:44;102051.03;;;1.10;100.00
43125;BME280;49182;50.788;7.318;2024-01-30T06:09:47;102040.56;;;1.12;100.00
43125;BME280;49182;50.788;7.318;2024-01-30T06:14:49;102037.19;;;1.08;100.00
43125;BME280;49182;50.788;7.318;2024-01-30T06:19:51;102036.22;;;1.12;100.00
43125;BME280;49182;50.788;7.318;2024-01-30T06:24:54;102045.84;;;1.09;100.00
43125;BME280;49182;50.788;7.318;2024-01-30T06:29:55;102034.63;;;1.07;100.00
43125;BME280;49182;50.788;7.318;2024-01-30T06:34:57;102039.03;;;1.05;100.00
43125;BME280;49182;50.788;7.318;2024-01-30T06:40:00;102049.31;;;1.09;100.00
43125;BME280;49182;50.788;7.318;2024-01-30T06:45:02;102050.94;;;1.12;100.00
43125;BME280;49182;50.788;7.318;2024-01-30T06:50:05;102049.44;;;1.05;100.00
43125;BME280;49182;50.788;7.318;2024-01-30T06:55:09;102044.09;;;1.09;100.00
43125;BME280;49182;50.788;7.318;2024-01-30T07:00:12;102041.34;;;1.15;100.00
43125;BME280;49182;50.788;7.318;2024-01-30T07:05:15;102046.53;;;1.15;100.00
43125;BME280;49182;50.788;7.318;2024-01-30T07:10:18;102046.38;;;1.21;100.00
43125;BME280;49182;50.788;7.318;2024-01-30T07:15:20;102028.25;;;1.18;100.00
43125;BME280;49182;50.788;7.318;2024-01-30T07:20:21;102047.97;;;1.27;100.00
43125;BME280;49182;50.788;7.318;2024-01-30T07:25:25;102044.34;;;1.33;100.00
43125;BME280;49182;50.788;7.318;2024-01-30T07:30:27;102035.56;;;1.37;100.00
43125;BME280;49182;50.788;7.318;2024-01-30T07:35:28;102038.84;;;1.43;100.00
43125;BME280;49182;50.788;7.318;2024-01-30T07:40:32;102042.16;;;1.50;100.00
43125;BME280;49182;50.788;7.318;2024-01-30T07:45:33;102047.22;;;1.54;100.00
43125;BME280;49182;50.788;7.318;2024-01-30T07:50:35;102042.53;;;1.67;100.00
43125;BME280;49182;50.788;7.318;2024-01-30T07:55:38;102039.03;;;1.68;100.00
43125;BME280;49182;50.788;7.318;2024-01-30T08:00:40;102051.81;;;1.77;100.00
43125;BME280;49182;50.788;7.318;2024-01-30T08:05:42;102069.72;;;1.88;100.00
43125;BME280;49182;50.788;7.318;2024-01-30T08:10:45;102066.81;;;1.98;100.00
43125;BME280;49182;50.788;7.318;2024-01-30T08:15:47;102082.25;;;2.04;100.00
43125;BME280;49182;50.788;7.318;2024-01-30T08:20:48;102073.13;;;2.21;100.00
43125;BME280;49182;50.788;7.318;2024-01-30T08:25:51;102078.16;;;2.27;100.00
43125;BME280;49182;50.788;7.318;2024-01-30T08:30:54;102072.38;;;2.45;100.00
43125;BME280;49182;50.788;7.318;2024-01-30T08:35:55;102069.56;;;2.53;100.00
43125;BME280;49182;50.788;7.318;2024-01-30T08:40:58;102064.91;;;2.62;100.00
43125;BME280;49182;50.788;7.318;2024-01-30T08:46:00;102057.78;;;2.67;100.00
43125;BME280;49182;50.788;7.318;2024-01-30T08:51:02;102046.72;;;2.87;100.00
43125;BME280;49182;50.788;7.318;2024-01-30T08:56:06;102046.22;;;3.02;100.00
43125;BME280;49182;50.788;7.318;2024-01-30T09:01:08;102054.03;;;3.02;100.00
43125;BME280;49182;50.788;7.318;2024-01-30T09:06:10;102056.28;;;3.13;100.00
43125;BME280;49182;50.788;7.318;2024-01-30T09:11:15;101963.81;;;2.70;100.00
43125;BME280;49182;50.788;7.318;2024-01-30T09:16:18;102060.63;;;3.39;100.00
43125;BME280;49182;50.788;7.318;2024-01-30T09:21:20;102065.22;;;3.57;100.00
43125;BME280;49182;50.788;7.318;2024-01-30T09:26:23;102076.41;;;3.84;100.00
43125;BME280;49182;50.788;7.318;2024-01-30T09:31:27;102087.81;;;4.06;100.00
43125;BME280;49182;50.788;7.318;2024-01-30T09:36:29;102095.81;;;4.25;100.00
43125;BME280;49182;50.788;7.318;2024-01-30T09:41:33;102096.59;;;4.50;100.00
43125;BME280;49182;50.788;7.318;2024-01-30T09:46:40;102061.97;;;4.43;100.00
43125;BME280;49182;50.788;7.318;2024-01-30T09:51:42;102099.56;;;4.84;100.00
43125;BME280;49182;50.788;7.318;2024-01-30T09:56:45;102105.59;;;5.08;100.00
43125;BME280;49182;50.788;7.318;2024-01-30T10:01:49;102098.88;;;5.43;100.00
43125;BME280;49182;50.788;7.318;2024-01-30T10:06:51;102099.09;;;5.79;100.00
43125;BME280;49182;50.788;7.318;2024-01-30T10:11:55;102094.13;;;6.12;100.00
43125;BME280;49182;50.788;7.318;2024-01-30T10:16:57;102099.31;;;6.32;100.00
43125;BME280;49182;50.788;7.318;2024-01-30T10:21:59;102099.59;;;6.64;100.00
43125;BME280;49182;50.788;7.318;2024-01-30T10:27:05;102104.22;;;6.95;100.00
43125;BME280;49182;50.788;7.318;2024-01-30T10:32:07;102095.44;;;7.30;100.00
43125;BME280;49182;50.788;7.318;2024-01-30T10:37:09;102109.59;;;7.62;100.00
43125;BME280;49182;50.788;7.318;2024-01-30T10:42:14;102102.06;;;7.89;100.00
43125;BME280;49182;50.788;7.318;2024-01-30T10:47:18;102081.38;;;7.98;100.00
43125;BME280;49182;50.788;7.318;2024-01-30T10:52:23;101991.50;;;7.75;100.00
43125;BME280;49182;50.788;7.318;2024-01-30T10:57:27;102050.75;;;8.30;100.00
43125;BME280;49182;50.788;7.318;2024-01-30T11:02:29;102100.56;;;8.80;100.00
43125;BME280;49182;50.788;7.318;2024-01-30T11:07:33;102088.13;;;8.98;100.00
43125;BME280;49182;50.788;7.318;2024-01-30T11:12:39;102085.38;;;9.15;100.00
43125;BME280;49182;50.788;7.318;2024-01-30T11:17:45;102076.59;;;9.30;100.00
43125;BME280;49182;50.788;7.318;2024-01-30T11:22:52;102060.31;;;9.38;100.00
43125;BME280;49182;50.788;7.318;2024-01-30T11:27:55;102074.28;;;9.54;100.00
43125;BME280;49182;50.788;7.318;2024-01-30T11:32:59;102069.50;;;9.61;100.00
43125;BME280;49182;50.788;7.318;2024-01-30T11:38:01;102061.69;;;9.73;100.00
43125;BME280;49182;50.788;7.318;2024-01-30T11:43:06;102002.41;;;9.51;100.00
43125;BME280;49182;50.788;7.318;2024-01-30T11:48:08;102048.00;;;9.95;100.00
43125;BME280;49182;50.788;7.318;2024-01-30T11:53:10;101989.44;;;9.62;100.00
43125;BME280;49182;50.788;7.318;2024-01-30T11:58:14;102037.63;;;10.06;100.00
43125;BME280;49182;50.788;7.318;2024-01-30T12:03:16;102045.78;;;10.18;100.00
43125;BME280;49182;50.788;7.318;2024-01-30T12:08:18;102043.41;;;10.27;100.00
43125;BME280;49182;50.788;7.318;2024-01-30T12:13:21;102039.59;;;10.45;100.00
43125;BME280;49182;50.788;7.318;2024-01-30T12:18:23;102030.47;;;10.64;99.28
43125;BME280;49182;50.788;7.318;2024-01-30T12:23:25;102030.44;;;10.78;99.39
43125;BME280;49182;50.788;7.318;2024-01-30T12:28:28;102033.56;;;10.97;99.34
43125;BME280;49182;50.788;7.318;2024-01-30T12:33:30;102012.53;;;11.08;98.86
43125;BME280;49182;50.788;7.318;2024-01-30T12:38:32;102032.66;;;11.36;97.50
43125;BME280;49182;50.788;7.318;2024-01-30T12:43:36;102035.72;;;11.55;94.87
43125;BME280;49182;50.788;7.318;2024-01-30T12:48:40;102049.81;;;11.68;89.79
43125;BME280;49182;50.788;7.318;2024-01-30T12:53:41;102049.47;;;11.73;90.27
43125;BME280;49182;50.788;7.318;2024-01-30T12:58:45;102017.72;;;11.60;85.99
43125;BME280;49182;50.788;7.318;2024-01-30T13:03:52;102053.53;;;11.66;86.25
43125;BME280;49182;50.788;7.318;2024-01-30T13:08:54;102056.69;;;11.71;86.87
43125;BME280;49182;50.788;7.318;2024-01-30T13:13:57;102034.16;;;11.65;87.89
43125;BME280;49182;50.788;7.318;2024-01-30T13:19:00;102056.41;;;11.88;87.28
43125;BME280;49182;50.788;7.318;2024-01-30T13:24:01;101975.75;;;11.30;86.23
43125;BME280;49182;50.788;7.318;2024-01-30T13:29:04;102053.84;;;11.87;86.96
43125;BME280;49182;50.788;7.318;2024-01-30T13:34:06;102060.94;;;11.73;84.42
43125;BME280;49182;50.788;7.318;2024-01-30T13:39:09;102070.25;;;11.79;84.08
43125;BME280;49182;50.788;7.318;2024-01-30T13:44:12;102063.38;;;11.89;83.87
43125;BME280;49182;50.788;7.318;2024-01-30T13:49:14;102081.50;;;11.83;83.73
43125;BME280;49182;50.788;7.318;2024-01-30T13:54:16;102071.06;;;11.67;81.60
43125;BME280;49182;50.788;7.318;2024-01-30T13:59:20;102082.50;;;11.67;82.13
43125;BME280;49182;50.788;7.318;2024-01-30T14:04:22;102016.75;;;11.23;82.12
43125;BME280;49182;50.788;7.318;2024-01-30T14:09:23;102089.28;;;11.46;81.22
43125;BME280;49182;50.788;7.318;2024-01-30T14:14:26;102088.94;;;11.51;81.99
43125;BME280;49182;50.788;7.318;2024-01-30T14:19:28;102096.03;;;11.50;81.71
43125;BME280;49182;50.788;7.318;2024-01-30T14:24:30;102097.66;;;11.53;82.97
43125;BME280;49182;50.788;7.318;2024-01-30T14:29:33;102102.59;;;11.57;83.60
43125;BME280;49182;50.788;7.318;2024-01-30T14:34:34;102105.16;;;11.59;82.98
43125;BME280;49182;50.788;7.318;2024-01-30T14:39:36;102099.03;;;11.58;82.35
43125;BME280;49182;50.788;7.318;2024-01-30T14:44:39;102104.94;;;11.62;83.65
43125;BME280;49182;50.788;7.318;2024-01-30T14:49:42;102109.59;;;11.58;83.15
43125;BME280;49182;50.788;7.318;2024-01-30T14:54:43;102068.00;;;11.35;84.40
43125;BME280;49182;50.788;7.318;2024-01-30T14:59:46;102109.78;;;11.55;85.12
43125;BME280;49182;50.788;7.318;2024-01-30T15:04:48;102108.22;;;11.53;85.47
43125;BME280;49182;50.788;7.318;2024-01-30T15:09:50;102116.56;;;11.47;85.93
43125;BME280;49182;50.788;7.318;2024-01-30T15:14:53;102122.72;;;11.47;87.11
43125;BME280;49182;50.788;7.318;2024-01-30T15:19:55;102134.56;;;11.42;87.67
43125;BME280;49182;50.788;7.318;2024-01-30T15:24:56;102147.09;;;11.38;88.16
43125;BME280;49182;50.788;7.318;2024-01-30T15:29:59;102140.53;;;11.31;89.00
43125;BME280;49182;50.788;7.318;2024-01-30T15:35:01;102142.94;;;11.21;90.23
43125;BME280;49182;50.788;7.318;2024-01-30T15:40:04;102148.94;;;11.11;90.77
43125;BME280;49182;50.788;7.318;2024-01-30T15:45:07;102159.25;;;11.01;90.43
43125;BME280;49182;50.788;7.318;2024-01-30T15:50:10;102162.09;;;10.98;90.79
43125;BME280;49182;50.788;7.318;2024-01-30T15:55:12;102176.19;;;10.84;91.79
43125;BME280;49182;50.788;7.318;2024-01-30T16:00:16;102170.25;;;10.81;92.43
43125;BME280;49182;50.788;7.318;2024-01-30T16:05:18;102178.84;;;10.84;92.09
43125;BME280;49182;50.788;7.318;2024-01-30T16:10:20;102179.63;;;10.72;93.31
43125;BME280;49182;50.788;7.318;2024-01-30T16:15:23;102193.38;;;10.63;93.81
43125;BME280;49182;50.788;7.318;2024-01-30T16:20:25;102193.69;;;10.59;94.15
43125;BME280;49182;50.788;7.318;2024-01-30T16:25:26;102191.41;;;10.52;94.72
43125;BME280;49182;50.788;7.318;2024-01-30T16:30:29;102205.94;;;10.45;94.84
43125;BME280;49182;50.788;7.318;2024-01-30T16:35:31;102207.25;;;10.38;95.17
43125;BME280;49182;50.788;7.318;2024-01-30T16:40:47;102204.13;;;10.32;96.01
43125;BME280;49182;50.788;7.318;2024-01-30T16:45:50;102201.88;;;10.26;96.50
43125;BME280;49182;50.788;7.318;2024-01-30T16:50:52;102213.56;;;10.22;96.52
43125;BME280;49182;50.788;7.318;2024-01-30T16:55:53;102213.25;;;10.12;97.17
43125;BME280;49182;50.788;7.318;2024-01-30T17:00:57;102232.34;;;10.01;98.22
43125;BME280;49182;50.788;7.318;2024-01-30T17:05:58;102243.25;;;9.95;98.59
43125;BME280;49182;50.788;7.318;2024-01-30T17:11:00;102246.94;;;9.93;99.30
43125;BME280;49182;50.788;7.318;2024-01-30T17:16:03;102256.91;;;9.88;100.00
43125;BME280;49182;50.788;7.318;2024-01-30T17:21:05;102269.34;;;9.86;99.29
43125;BME280;49182;50.788;7.318;2024-01-30T17:26:07;102272.56;;;9.91;99.05
43125;BME280;49182;50.788;7.318;2024-01-30T17:31:10;102288.69;;;10.00;98.49
43125;BME280;49182;50.788;7.318;2024-01-30T17:36:12;102278.34;;;9.97;98.17
43125;BME280;49182;50.788;7.318;2024-01-30T17:41:14;102294.22;;;10.11;96.57
43125;BME280;49182;50.788;7.318;2024-01-30T17:46:17;102312.56;;;10.13;96.01
43125;BME280;49182;50.788;7.318;2024-01-30T17:51:18;102318.81;;;10.12;94.09
43125;BME280;49182;50.788;7.318;2024-01-30T17:56:21;102323.84;;;10.17;93.37
43125;BME280;49182;50.788;7.318;2024-01-30T18:01:25;102332.63;;;10.17;92.37
43125;BME280;49182;50.788;7.318;2024-01-30T18:06:26;102345.38;;;10.09;91.99
43125;BME280;49182;50.788;7.318;2024-01-30T18:11:28;102361.28;;;10.07;90.14
43125;BME280;49182;50.788;7.318;2024-01-30T18:16:31;102373.41;;;10.11;87.56
43125;BME280;49182;50.788;7.318;2024-01-30T18:21:34;102380.53;;;10.09;84.88
43125;BME280;49182;50.788;7.318;2024-01-30T18:26:36;102366.69;;;10.06;84.17
43125;BME280;49182;50.788;7.318;2024-01-30T18:31:39;102373.13;;;10.00;82.33
43125;BME280;49182;50.788;7.318;2024-01-30T18:36:41;102374.25;;;9.96;81.54
43125;BME280;49182;50.788;7.318;2024-01-30T18:41:43;102342.34;;;9.69;80.37
43125;BME280;49182;50.788;7.318;2024-01-30T18:46:46;102390.00;;;9.98;80.92
43125;BME280;49182;50.788;7.318;2024-01-30T18:51:48;102393.00;;;9.92;81.17
43125;BME280;49182;50.788;7.318;2024-01-30T18:56:49;102388.81;;;9.88;80.13
43125;BME280;49182;50.788;7.318;2024-01-30T19:01:53;102398.53;;;9.87;81.04
43125;BME280;49182;50.788;7.318;2024-01-30T19:06:54;102402.59;;;9.77;79.05
43125;BME280;49182;50.788;7.318;2024-01-30T19:11:56;102411.63;;;9.73;78.15
43125;BME280;49182;50.788;7.318;2024-01-30T19:16:59;102419.63;;;9.71;79.09
43125;BME280;49182;50.788;7.318;2024-01-30T19:22:01;102409.94;;;9.72;78.50
43125;BME280;49182;50.788;7.318;2024-01-30T19:27:03;102419.44;;;9.59;76.70
43125;BME280;49182;50.788;7.318;2024-01-30T19:32:06;102438.09;;;9.56;74.43
43125;BME280;49182;50.788;7.318;2024-01-30T19:37:08;102436.19;;;9.58;75.82
43125;BME280;49182;50.788;7.318;2024-01-30T19:42:09;102439.59;;;9.60;76.38
43125;BME280;49182;50.788;7.318;2024-01-30T19:47:12;102435.94;;;9.47;74.90
43125;BME280;49182;50.788;7.318;2024-01-30T19:52:14;102429.72;;;9.48;75.02
43125;BME280;49182;50.788;7.318;2024-01-30T19:57:16;102437.09;;;9.41;74.50
43125;BME280;49182;50.788;7.318;2024-01-30T20:02:20;102440.84;;;9.37;74.10
43125;BME280;49182;50.788;7.318;2024-01-30T20:07:21;102441.00;;;9.34;73.48
43125;BME280;49182;50.788;7.318;2024-01-30T20:12:23;102447.31;;;9.31;73.10
43125;BME280;49182;50.788;7.318;2024-01-30T20:17:26;102454.25;;;9.32;74.25
43125;BME280;49182;50.788;7.318;2024-01-30T20:22:28;102465.97;;;9.27;73.74
43125;BME280;49182;50.788;7.318;2024-01-30T20:27:30;102439.72;;;9.08;74.53
43125;BME280;49182;50.788;7.318;2024-01-30T20:32:33;102478.00;;;9.15;74.84
43125;BME280;49182;50.788;7.318;2024-01-30T20:37:37;102408.94;;;8.76;74.78
43125;BME280;49182;50.788;7.318;2024-01-30T20:42:39;102459.59;;;8.98;74.84
43125;BME280;49182;50.788;7.318;2024-01-30T20:47:42;102473.22;;;9.06;75.08
43125;BME280;49182;50.788;7.318;2024-01-30T20:52:44;102491.03;;;9.01;74.45
43125;BME280;49182;50.788;7.318;2024-01-30T20:57:45;102500.56;;;9.04;75.12
43125;BME280;49182;50.788;7.318;2024-01-30T21:02:48;102494.91;;;9.11;75.81
43125;BME280;49182;50.788;7.318;2024-01-30T21:07:52;102508.41;;;9.05;76.28
43125;BME280;49182;50.788;7.318;2024-01-30T21:12:54;102503.84;;;8.91;77.54
43125;BME280;49182;50.788;7.318;2024-01-30T21:17:58;102505.97;;;8.83;78.52
43125;BME280;49182;50.788;7.318;2024-01-30T21:22:59;102486.63;;;8.67;78.52
43125;BME280;49182;50.788;7.318;2024-01-30T21:28:01;102510.88;;;8.74;79.48
43125;BME280;49182;50.788;7.318;2024-01-30T21:33:05;102507.53;;;8.70;79.95
43125;BME280;49182;50.788;7.318;2024-01-30T21:38:07;102510.38;;;8.66;80.33
43125;BME280;49182;50.788;7.318;2024-01-30T21:43:08;102513.63;;;8.53;80.37
43125;BME280;49182;50.788;7.318;2024-01-30T21:48:11;102502.16;;;8.55;80.63
43125;BME280;49182;50.788;7.318;2024-01-30T21:53:13;102512.75;;;8.53;81.21
43125;BME280;49182;50.788;7.318;2024-01-30T21:58:15;102514.78;;;8.48;80.74
43125;BME280;49182;50.788;7.318;2024-01-30T22:03:18;102526.50;;;8.41;81.62
43125;BME280;49182;50.788;7.318;2024-01-30T22:08:20;102523.47;;;8.31;81.73
43125;BME280;49182;50.788;7.318;2024-01-30T22:13:21;102526.97;;;8.32;81.88
43125;BME280;49182;50.788;7.318;2024-01-30T22:18:24;102523.47;;;8.31;82.33
43125;BME280;49182;50.788;7.318;2024-01-30T22:23:26;102535.72;;;8.32;82.52
43125;BME280;49182;50.788;7.318;2024-01-30T22:28:28;102542.75;;;8.32;81.31
43125;BME280;49182;50.788;7.318;2024-01-30T22:33:31;102535.78;;;8.31;81.86
43125;BME280;49182;50.788;7.318;2024-01-30T22:38:34;102527.91;;;8.29;82.22
43125;BME280;49182;50.788;7.318;2024-01-30T22:43:35;102537.59;;;8.29;82.83
43125;BME280;49182;50.788;7.318;2024-01-30T22:48:39;102549.81;;;8.31;82.85
43125;BME280;49182;50.788;7.318;2024-01-30T22:53:40;102553.38;;;8.29;83.25
43125;BME280;49182;50.788;7.318;2024-01-30T22:58:42;102553.44;;;8.27;83.85
43125;BME280;49182;50.788;7.318;2024-01-30T23:03:46;102544.63;;;8.09;84.86
43125;BME280;49182;50.788;7.318;2024-01-30T23:08:47;102580.19;;;8.18;86.04
43125;BME280;49182;50.788;7.318;2024-01-30T23:13:49;102591.72;;;8.16;86.82
43125;BME280;49182;50.788;7.318;2024-01-30T23:18:52;102587.75;;;8.26;86.75
43125;BME280;49182;50.788;7.318;2024-01-30T23:23:54;102593.06;;;8.24;87.25
43125;BME280;49182;50.788;7.318;2024-01-30T23:28:56;102602.63;;;8.27;87.86
43125;BME280;49182;50.788;7.318;2024-01-30T23:33:59;102601.78;;;8.26;88.26
43125;BME280;49182;50.788;7.318;2024-01-30T23:39:00;102603.81;;;8.20;90.11
43125;BME280;49182;50.788;7.318;2024-01-30T23:44:02;102606.50;;;8.18;90.18
43125;BME280;49182;50.788;7.318;2024-01-30T23:49:05;102575.84;;;7.98;90.28
43125;BME280;49182;50.788;7.318;2024-01-30T23:54:07;102608.44;;;8.15;91.05
43125;BME280;49182;50.788;7.318;2024-01-30T23:59:10;102598.03;;;8.11;91.10
